createdAt,value
2022-10-05T00:00:33.660Z,66.17
2022-10-05T00:03:10.727Z,67.16
2022-10-05T00:05:39.008Z,66.38
2022-10-05T00:08:17.301Z,66.74
2022-10-05T00:10:46.373Z,66.32
2022-10-05T00:13:24.201Z,67.01
2022-10-05T00:15:58.309Z,66.44
2022-10-05T00:18:27.269Z,67.14
2022-10-05T00:20:55.260Z,66.75
2022-10-05T00:23:26.366Z,66.66
2022-10-05T00:25:53.527Z,66.62
2022-10-05T00:28:28.189Z,67.09
2022-10-05T00:30:59.452Z,66.62
2022-10-05T00:33:28.327Z,66.65
2022-10-05T00:35:55.871Z,67.04
2022-10-05T00:38:23.661Z,67.30
2022-10-05T00:41:16.914Z,67.34
2022-10-05T00:44:05.822Z,66.99
2022-10-05T00:46:57.511Z,67.43
2022-10-05T00:49:43.237Z,67.84
2022-10-05T00:52:49.473Z,68.01
2022-10-05T00:55:22.642Z,67.04
2022-10-05T00:58:08.335Z,67.55
2022-10-05T01:00:50.281Z,68.23
2022-10-05T01:03:38.308Z,67.54
2022-10-05T01:06:23.510Z,67.42
2022-10-05T01:09:15.373Z,67.85
2022-10-05T01:11:54.507Z,67.47
2022-10-05T01:14:45.961Z,66.97
2022-10-05T01:17:24.724Z,66.73
2022-10-05T01:20:27.305Z,66.56
2022-10-05T01:23:16.148Z,66.68
2022-10-05T01:25:49.628Z,66.93
2022-10-05T01:28:28.602Z,67.46
2022-10-05T01:31:33.038Z,67.21
2022-10-05T01:34:11.662Z,67.24
2022-10-05T01:36:45.100Z,67.18
2022-10-05T01:39:33.739Z,67.79
2022-10-05T01:42:13.164Z,67.26
2022-10-05T01:44:48.840Z,66.61
2022-10-05T01:47:44.793Z,67.37
2022-10-05T01:50:44.087Z,67.21
2022-10-05T01:53:40.372Z,66.97
2022-10-05T01:56:30.775Z,67.13
2022-10-05T01:59:24.629Z,67.80
2022-10-05T02:02:01.652Z,67.33
2022-10-05T02:05:02.309Z,66.07
2022-10-05T02:07:46.060Z,65.28
2022-10-05T02:10:19.141Z,65.58
2022-10-05T02:12:51.597Z,64.97
2022-10-05T02:15:26.554Z,65.69
2022-10-05T02:17:59.905Z,65.62
2022-10-05T02:20:33.609Z,65.05
2022-10-05T02:23:09.805Z,65.38
2022-10-05T02:25:39.988Z,65.56
2022-10-05T02:28:16.941Z,65.71
2022-10-05T02:31:11.856Z,65.08
2022-10-05T02:33:39.108Z,64.99
2022-10-05T02:36:35.262Z,64.70
2022-10-05T02:39:06.432Z,64.85
2022-10-05T02:41:33.541Z,65.71
2022-10-05T02:44:32.331Z,66.07
2022-10-05T02:46:59.720Z,65.85
2022-10-05T02:50:00.808Z,65.77
2022-10-05T02:52:44.337Z,65.91
2022-10-05T02:55:35.056Z,66.65
2022-10-05T02:58:08.443Z,66.36
2022-10-05T03:01:05.163Z,65.69
2022-10-05T03:03:45.092Z,65.71
2022-10-05T03:06:35.337Z,65.82
2022-10-05T03:09:05.566Z,65.33
2022-10-05T03:11:51.853Z,64.73
2022-10-05T03:14:42.597Z,65.08
2022-10-05T03:17:15.817Z,64.94
2022-10-05T03:20:03.556Z,63.57
2022-10-05T03:22:51.383Z,62.94
2022-10-05T03:25:53.994Z,62.58
2022-10-05T03:28:40.157Z,63.07
2022-10-05T03:31:31.606Z,62.82
2022-10-05T03:34:22.162Z,63.23
2022-10-05T03:36:55.438Z,63.26
2022-10-05T03:39:37.685Z,63.73
2022-10-05T03:42:09.585Z,63.77
2022-10-05T03:44:55.418Z,63.86
2022-10-05T03:47:51.717Z,64.76
2022-10-05T03:50:19.212Z,64.39
2022-10-05T03:52:56.824Z,64.98
2022-10-05T03:55:46.323Z,64.81
2022-10-05T03:58:26.351Z,65.14
2022-10-05T04:00:59.199Z,64.86
2022-10-05T04:03:35.018Z,64.97
2022-10-05T04:06:14.112Z,65.25
2022-10-05T04:09:03.054Z,65.05
2022-10-05T04:11:37.051Z,65.25
2022-10-05T04:14:16.220Z,65.00
2022-10-05T04:16:58.549Z,64.40
2022-10-05T04:19:45.029Z,64.24
2022-10-05T04:22:22.804Z,64.56
2022-10-05T04:25:01.533Z,63.65
2022-10-05T04:27:39.807Z,63.23
2022-10-05T04:30:19.543Z,63.75
2022-10-05T04:32:58.199Z,62.97
2022-10-05T04:35:52.598Z,63.36
2022-10-05T04:38:38.990Z,62.36
2022-10-05T04:41:28.099Z,62.44
2022-10-05T04:44:07.673Z,63.42
2022-10-05T04:47:03.549Z,62.77
2022-10-05T04:49:55.542Z,63.50
2022-10-05T04:52:41.306Z,63.77
2022-10-05T04:55:31.834Z,64.08
2022-10-05T04:58:42.535Z,64.24
2022-10-05T05:01:48.328Z,64.43
2022-10-05T05:04:40.660Z,63.86
2022-10-05T05:07:37.350Z,63.88
2022-10-05T05:10:33.050Z,63.60
2022-10-05T05:13:31.093Z,63.38
2022-10-05T05:16:27.621Z,63.45
2022-10-05T05:19:13.238Z,63.19
2022-10-05T05:21:59.079Z,63.07
2022-10-05T05:24:39.470Z,62.57
2022-10-05T05:27:38.949Z,62.30
2022-10-05T05:30:22.090Z,61.81
2022-10-05T05:33:03.479Z,62.23
2022-10-05T05:35:57.968Z,62.19
2022-10-05T05:38:50.621Z,62.15
2022-10-05T05:41:39.588Z,62.12
2022-10-05T05:44:28.212Z,62.31
2022-10-05T05:47:13.662Z,62.03
2022-10-05T05:50:09.340Z,61.79
2022-10-05T05:52:47.681Z,62.24
2022-10-05T05:55:33.371Z,62.04
2022-10-05T05:58:14.352Z,61.07
2022-10-05T06:01:20.206Z,61.41
2022-10-05T06:03:59.608Z,60.89
2022-10-05T06:06:38.549Z,60.07
2022-10-05T06:09:24.184Z,60.29
2022-10-05T06:12:14.630Z,60.19
2022-10-05T06:15:26.096Z,59.94
2022-10-05T06:17:57.460Z,60.38
2022-10-05T06:20:39.669Z,60.07
2022-10-05T06:23:18.884Z,60.61
2022-10-05T06:26:09.749Z,60.22
2022-10-05T06:28:38.694Z,60.17
2022-10-05T06:31:30.024Z,59.98
2022-10-05T06:34:05.776Z,59.34
2022-10-05T06:36:59.434Z,59.38
2022-10-05T06:39:47.248Z,59.27
2022-10-05T06:42:32.677Z,59.37
2022-10-05T06:45:44.886Z,58.75
2022-10-05T06:48:36.254Z,59.05
2022-10-05T06:51:46.706Z,58.88
2022-10-05T06:54:26.049Z,58.82
2022-10-05T06:57:17.282Z,58.35
2022-10-05T06:59:44.484Z,57.82
2022-10-05T07:02:29.812Z,58.08
2022-10-05T07:05:39.156Z,57.17
2022-10-05T07:08:15.855Z,57.32
2022-10-05T07:11:05.520Z,56.27
2022-10-05T07:13:39.469Z,56.57
2022-10-05T07:16:10.461Z,54.89
2022-10-05T07:18:44.077Z,55.00
2022-10-05T07:21:14.570Z,55.33
2022-10-05T07:23:46.413Z,55.81
2022-10-05T07:26:33.247Z,56.22
2022-10-05T07:29:20.343Z,55.93
2022-10-05T07:32:12.383Z,55.63
2022-10-05T07:34:48.101Z,54.55
2022-10-05T07:37:55.719Z,55.64
2022-10-05T07:40:58.605Z,55.54
2022-10-05T07:44:05.014Z,55.49
2022-10-05T07:46:45.890Z,55.40
2022-10-05T07:49:39.522Z,54.94
2022-10-05T07:52:14.185Z,55.13
2022-10-05T07:55:00.278Z,54.74
2022-10-05T07:57:51.940Z,54.99
2022-10-05T08:00:20.722Z,55.00
2022-10-05T08:03:14.897Z,54.56
2022-10-05T08:05:47.093Z,54.44
2022-10-05T08:08:31.674Z,53.83
2022-10-05T08:11:11.293Z,52.66
2022-10-05T08:13:41.742Z,53.06
2022-10-05T08:16:15.674Z,51.39
2022-10-05T08:18:51.289Z,52.26
2022-10-05T08:21:27.971Z,52.02
2022-10-05T08:23:58.280Z,53.20
2022-10-05T08:27:02.820Z,52.56
2022-10-05T08:29:37.587Z,51.72
2022-10-05T08:32:26.651Z,51.83
2022-10-05T08:35:12.699Z,50.27
2022-10-05T08:37:42.520Z,50.56
2022-10-05T08:40:18.938Z,51.37
2022-10-05T08:43:10.452Z,51.28
2022-10-05T08:45:49.768Z,50.19
2022-10-05T08:48:23.322Z,50.46
2022-10-05T08:50:59.612Z,50.69
2022-10-05T08:54:02.356Z,50.48
2022-10-05T08:56:35.446Z,49.52
2022-10-05T08:59:17.874Z,48.94
2022-10-05T09:02:23.380Z,49.34
2022-10-05T09:05:21.174Z,49.31
2022-10-05T09:08:27.305Z,49.09
2022-10-05T09:11:19.388Z,48.98
2022-10-05T09:14:17.577Z,47.70
2022-10-05T09:16:51.642Z,48.54
2022-10-05T09:19:52.941Z,49.22
2022-10-05T09:22:54.796Z,48.63
2022-10-05T09:25:58.036Z,48.54
2022-10-05T09:28:40.384Z,48.53
2022-10-05T09:31:19.589Z,47.92
2022-10-05T09:34:13.257Z,45.98
2022-10-05T09:37:02.935Z,47.42
2022-10-05T09:39:36.190Z,47.75
2022-10-05T09:42:28.920Z,47.90
2022-10-05T09:45:21.566Z,45.63
2022-10-05T09:48:10.217Z,45.46
2022-10-05T09:50:41.845Z,44.41
2022-10-05T09:53:38.808Z,45.44
2022-10-05T09:59:13.384Z,44.42
2022-10-05T10:02:35.217Z,43.85
2022-10-05T10:05:09.537Z,42.60
2022-10-05T10:08:05.857Z,43.92
2022-10-05T10:10:53.034Z,44.03
2022-10-05T10:13:43.246Z,43.30
2022-10-05T10:16:27.876Z,43.85
2022-10-05T10:19:20.077Z,43.34
2022-10-05T10:21:56.349Z,43.56
2022-10-05T10:24:57.325Z,43.07
2022-10-05T10:27:44.654Z,42.82
2022-10-05T10:30:41.279Z,42.65
2022-10-05T10:33:21.141Z,41.27
2022-10-05T10:36:13.775Z,40.13
2022-10-05T10:38:50.377Z,41.80
2022-10-05T10:41:52.609Z,41.96
2022-10-05T10:44:35.029Z,41.86
2022-10-05T10:47:13.675Z,41.94
2022-10-05T10:50:14.835Z,41.49
2022-10-05T10:53:02.002Z,42.01
2022-10-05T10:55:48.072Z,41.27
2022-10-05T10:58:37.010Z,40.96
2022-10-05T11:01:29.361Z,41.29
2022-10-05T11:04:09.944Z,41.90
2022-10-05T11:07:03.080Z,42.26
2022-10-05T11:09:34.854Z,43.07
2022-10-05T11:12:22.153Z,42.52
2022-10-05T11:15:11.181Z,42.57
2022-10-05T11:17:59.965Z,40.40
2022-10-05T11:20:39.291Z,40.65
2022-10-05T11:23:25.345Z,41.18
2022-10-05T11:26:10.644Z,41.78
2022-10-05T11:29:18.095Z,42.40
2022-10-05T11:32:29.990Z,42.43
2022-10-05T11:35:00.136Z,42.31
2022-10-05T11:37:46.367Z,42.29
2022-10-05T11:40:33.427Z,41.91
2022-10-05T11:43:22.971Z,42.02
2022-10-05T11:46:08.582Z,42.61
2022-10-05T11:48:54.433Z,42.11
2022-10-05T11:51:35.052Z,41.79
2022-10-05T11:54:10.013Z,42.09
2022-10-05T11:56:40.801Z,42.59
2022-10-05T11:59:35.447Z,42.28
2022-10-05T12:02:48.437Z,41.49
2022-10-05T12:05:42.155Z,40.73
2022-10-05T12:08:17.150Z,40.21
2022-10-05T12:10:58.866Z,40.17
2022-10-05T12:13:51.566Z,40.65
2022-10-05T12:17:01.309Z,40.56
2022-10-05T12:19:44.334Z,38.49
2022-10-05T12:22:49.791Z,40.39
2022-10-05T12:25:37.953Z,39.32
2022-10-05T12:28:11.491Z,39.96
2022-10-05T12:30:57.933Z,39.95
2022-10-05T12:33:41.204Z,40.16
2022-10-05T12:36:15.283Z,40.39
2022-10-05T12:39:17.272Z,40.11
2022-10-05T12:41:54.924Z,39.37
2022-10-05T12:44:50.158Z,39.66
2022-10-05T12:47:39.081Z,39.77
2022-10-05T12:50:12.353Z,39.50
2022-10-05T12:53:06.109Z,40.03
2022-10-05T12:55:42.458Z,40.28
2022-10-05T12:58:37.294Z,39.98
2022-10-05T13:01:19.137Z,40.12
2022-10-05T13:04:04.091Z,40.18
2022-10-05T13:06:40.135Z,39.95
2022-10-05T13:09:30.592Z,40.44
2022-10-05T13:12:04.242Z,40.80
2022-10-05T13:14:53.842Z,41.14
2022-10-05T13:17:23.986Z,41.00
2022-10-05T13:20:25.198Z,41.46
2022-10-05T13:23:18.590Z,41.40
2022-10-05T13:26:11.077Z,41.40
2022-10-05T13:28:50.713Z,40.62
2022-10-05T13:31:27.144Z,40.57
2022-10-05T13:34:17.949Z,40.55
2022-10-05T13:37:31.972Z,40.80
2022-10-05T13:40:25.041Z,40.33
2022-10-05T13:43:11.937Z,40.27
2022-10-05T13:45:52.566Z,40.54
2022-10-05T13:49:08.453Z,40.80
2022-10-05T13:52:10.891Z,40.65
2022-10-05T13:55:12.904Z,40.45
2022-10-05T13:57:59.899Z,40.43
2022-10-05T14:00:28.101Z,40.42
2022-10-05T14:02:57.930Z,38.93
2022-10-05T14:05:31.360Z,39.86
2022-10-05T14:08:04.330Z,39.53
2022-10-05T14:10:38.782Z,38.86
2022-10-05T14:13:43.535Z,40.12
2022-10-05T14:16:13.886Z,40.23
2022-10-05T14:18:55.303Z,40.52
2022-10-05T14:21:30.492Z,40.57
2022-10-05T14:24:44.616Z,40.43
2022-10-05T14:27:22.961Z,39.80
2022-10-05T14:30:13.311Z,40.52
2022-10-05T14:32:59.272Z,40.72
2022-10-05T14:35:30.629Z,40.96
2022-10-05T14:38:02.402Z,41.12
2022-10-05T14:40:34.287Z,41.04
2022-10-05T14:43:14.529Z,41.40
2022-10-05T14:45:58.196Z,41.59
2022-10-05T14:48:28.773Z,42.14
2022-10-05T14:51:03.546Z,42.82
2022-10-05T14:53:40.003Z,43.30
2022-10-05T14:56:40.695Z,43.38
2022-10-05T14:59:26.242Z,43.26
2022-10-05T15:02:35.426Z,43.43
2022-10-05T15:05:25.667Z,43.90
2022-10-05T15:07:57.671Z,44.12
2022-10-05T15:10:31.687Z,44.40
2022-10-05T15:13:17.258Z,44.63
2022-10-05T15:15:55.697Z,45.42
2022-10-05T15:18:37.534Z,45.01
2022-10-05T15:21:23.910Z,45.23
2022-10-05T15:24:06.309Z,45.64
2022-10-05T15:26:39.270Z,45.72
2022-10-05T15:29:27.433Z,46.18
2022-10-05T15:32:08.969Z,46.17
2022-10-05T15:35:04.189Z,46.53
2022-10-05T15:37:43.275Z,47.27
2022-10-05T15:40:37.000Z,47.36
2022-10-05T15:43:16.247Z,48.04
2022-10-05T15:46:10.674Z,47.77
2022-10-05T15:48:56.199Z,47.91
2022-10-05T15:51:51.192Z,48.25
2022-10-05T15:54:43.559Z,47.91
2022-10-05T15:57:32.782Z,49.44
2022-10-05T16:00:12.549Z,48.70
2022-10-05T16:02:48.954Z,49.00
2022-10-05T16:05:16.761Z,49.35
2022-10-05T16:08:10.926Z,49.97
2022-10-05T16:10:44.224Z,51.04
2022-10-05T16:13:14.459Z,50.19
2022-10-05T16:15:50.213Z,50.09
2022-10-05T16:18:41.590Z,50.67
2022-10-05T16:21:22.831Z,50.96
2022-10-05T16:23:59.529Z,51.93
2022-10-05T16:26:26.661Z,52.14
2022-10-05T16:29:09.837Z,52.70
2022-10-05T16:31:54.535Z,53.14
2022-10-05T16:34:54.478Z,52.54
2022-10-05T16:37:38.012Z,52.68
2022-10-05T16:40:08.500Z,53.08
2022-10-05T16:42:47.816Z,52.04
2022-10-05T16:45:27.197Z,51.94
2022-10-05T16:48:17.812Z,52.07
2022-10-05T16:51:25.520Z,51.75
2022-10-05T16:54:20.347Z,52.20
2022-10-05T16:57:10.251Z,52.30
2022-10-05T16:59:55.739Z,52.68
2022-10-05T17:02:42.034Z,52.62
2022-10-05T17:05:41.649Z,52.58
2022-10-05T17:08:36.861Z,52.46
2022-10-05T17:11:41.289Z,52.97
2022-10-05T17:14:16.329Z,52.76
2022-10-05T17:17:05.557Z,52.65
2022-10-05T17:19:57.113Z,52.67
2022-10-05T17:22:29.562Z,53.31
2022-10-05T17:25:19.447Z,53.40
2022-10-05T17:28:24.573Z,53.26
2022-10-05T17:31:15.043Z,53.04
2022-10-05T17:34:00.741Z,53.28
2022-10-05T17:36:43.140Z,53.36
2022-10-05T17:39:15.177Z,53.28
2022-10-05T17:41:43.430Z,53.37
2022-10-05T17:44:14.169Z,53.85
2022-10-05T17:46:46.000Z,54.39
2022-10-05T17:49:37.989Z,53.87
2022-10-05T17:52:40.928Z,53.88
2022-10-05T17:55:34.307Z,53.78
2022-10-05T17:58:24.566Z,53.75
2022-10-05T18:01:25.418Z,53.99
2022-10-05T18:03:52.950Z,53.82
2022-10-05T18:06:26.647Z,53.99
2022-10-05T18:09:13.029Z,54.21
2022-10-05T18:11:48.210Z,54.34
2022-10-05T18:14:23.483Z,54.33
2022-10-05T18:17:11.398Z,54.51
2022-10-05T18:19:39.818Z,54.27
2022-10-05T18:22:28.337Z,54.43
2022-10-05T18:25:27.371Z,54.36
2022-10-05T18:28:29.059Z,54.34
2022-10-05T18:31:04.511Z,55.14
2022-10-05T18:33:49.461Z,55.68
2022-10-05T18:36:37.866Z,55.49
2022-10-05T18:39:27.147Z,56.41
2022-10-05T18:42:20.862Z,56.22
2022-10-05T18:45:02.045Z,56.51
2022-10-05T18:48:05.107Z,57.71
2022-10-05T18:50:44.562Z,56.94
2022-10-05T18:53:30.740Z,56.78
2022-10-05T18:56:13.998Z,57.56
2022-10-05T18:58:54.508Z,57.15
2022-10-05T19:01:47.255Z,57.43
2022-10-05T19:04:37.579Z,58.35
2022-10-05T19:07:21.801Z,58.96
2022-10-05T19:09:52.263Z,58.71
2022-10-05T19:12:41.739Z,59.07
2022-10-05T19:15:35.278Z,58.59
2022-10-05T19:18:33.570Z,58.68
2022-10-05T19:21:17.150Z,59.38
2022-10-05T19:24:11.937Z,58.50
2022-10-05T19:27:01.142Z,60.23
2022-10-05T19:29:34.470Z,59.65
2022-10-05T19:32:16.871Z,60.64
2022-10-05T19:34:54.337Z,60.88
2022-10-05T19:37:31.263Z,60.77
2022-10-05T19:40:11.527Z,62.35
2022-10-05T19:42:59.943Z,62.63
2022-10-05T19:45:29.641Z,62.66
2022-10-05T19:48:09.088Z,63.56
2022-10-05T19:50:40.794Z,62.70
2022-10-05T19:53:15.396Z,63.16
2022-10-05T19:55:45.898Z,63.75
2022-10-05T19:58:26.851Z,65.08
2022-10-05T20:01:03.460Z,65.51
2022-10-05T20:03:38.152Z,65.25
2022-10-05T20:06:08.490Z,65.45
2022-10-05T20:08:44.511Z,66.73
2022-10-05T20:11:23.435Z,67.01
2022-10-05T20:13:53.568Z,66.26
2022-10-05T20:16:50.617Z,66.97
2022-10-05T20:19:56.064Z,67.06
2022-10-05T20:22:26.664Z,66.49
2022-10-05T20:24:56.966Z,66.40
2022-10-05T20:27:44.870Z,67.38
2022-10-05T20:30:19.022Z,66.46
2022-10-05T20:32:50.965Z,66.40
2022-10-05T20:35:21.202Z,65.95
2022-10-05T20:37:50.333Z,65.98
2022-10-05T20:40:20.095Z,66.02
2022-10-05T20:42:48.435Z,66.10
2022-10-05T20:45:16.116Z,65.57
2022-10-05T20:47:43.499Z,65.73
2022-10-05T20:50:11.459Z,65.89
2022-10-05T20:52:38.997Z,65.86
2022-10-05T20:55:09.128Z,66.02
2022-10-05T20:57:41.961Z,66.05
2022-10-05T21:00:11.631Z,66.00
2022-10-05T21:02:39.703Z,65.89
2022-10-05T21:05:08.041Z,65.90
2022-10-05T21:07:35.681Z,66.23
2022-10-05T21:10:03.939Z,66.19
2022-10-05T21:12:34.117Z,65.58
2022-10-05T21:15:01.848Z,65.65
2022-10-05T21:17:31.807Z,65.61
2022-10-05T21:20:00.100Z,65.60
2022-10-05T21:22:27.607Z,65.44
2022-10-05T21:24:55.955Z,65.99
2022-10-05T21:27:23.943Z,65.32
2022-10-05T21:29:51.711Z,65.46
2022-10-05T21:32:19.069Z,65.16
2022-10-05T21:34:46.406Z,65.22
2022-10-05T21:37:15.582Z,65.05
2022-10-05T21:39:43.014Z,65.31
2022-10-05T21:42:11.012Z,64.96
2022-10-05T21:44:41.582Z,64.99
2022-10-05T21:47:09.653Z,65.12
2022-10-05T21:49:37.737Z,64.37
2022-10-05T21:52:05.676Z,64.15
2022-10-05T21:54:34.214Z,64.07
2022-10-05T21:57:02.974Z,63.71
2022-10-05T21:59:34.208Z,63.34
2022-10-05T22:02:02.495Z,63.41
2022-10-05T22:04:29.986Z,63.04
2022-10-05T22:06:57.782Z,62.98
2022-10-05T22:09:25.051Z,62.50
2022-10-05T22:11:52.399Z,62.37
2022-10-05T22:14:19.621Z,62.72
2022-10-05T22:16:47.445Z,62.37
2022-10-05T22:19:18.851Z,62.26
2022-10-05T22:21:46.087Z,62.55
2022-10-05T22:24:14.659Z,62.24
2022-10-05T22:26:45.509Z,62.39
2022-10-05T22:29:14.977Z,62.24
2022-10-05T22:31:42.640Z,62.27
2022-10-05T22:34:09.947Z,62.28
2022-10-05T22:36:37.751Z,62.24
2022-10-05T22:39:05.104Z,62.67
2022-10-05T22:41:32.395Z,62.74
2022-10-05T22:44:00.618Z,62.95
2022-10-05T22:46:28.120Z,62.90
2022-10-05T22:48:55.690Z,63.14
2022-10-05T22:51:22.951Z,63.40
2022-10-05T22:53:51.050Z,63.26
2022-10-05T22:56:18.784Z,63.63
2022-10-05T22:58:46.995Z,63.92
2022-10-05T23:01:17.254Z,64.36
2022-10-05T23:03:45.271Z,64.76
2022-10-05T23:06:16.223Z,65.28
2022-10-05T23:08:45.423Z,64.97
2022-10-05T23:11:18.104Z,65.07
2022-10-05T23:13:45.733Z,64.45
2022-10-05T23:16:19.776Z,65.05
2022-10-05T23:18:52.450Z,65.37
2022-10-05T23:21:22.006Z,65.01
2022-10-05T23:23:53.087Z,65.20
2022-10-05T23:26:22.919Z,65.48
2022-10-05T23:28:53.713Z,65.65
2022-10-05T23:31:24.038Z,66.11
2022-10-05T23:33:52.985Z,66.22
2022-10-05T23:36:31.583Z,66.32
2022-10-05T23:38:59.452Z,66.42
2022-10-05T23:41:26.932Z,66.33
2022-10-05T23:43:57.335Z,66.25
2022-10-05T23:46:25.044Z,66.22
2022-10-05T23:48:53.795Z,66.72
2022-10-05T23:51:21.610Z,66.73
2022-10-05T23:53:48.826Z,66.57
2022-10-05T23:56:16.135Z,66.72
2022-10-05T23:58:43.431Z,67.08
